Time;durP1;ratioP1;P1;durP2;ratioP2;P2;SDS_P1;SDS_P2;PMS_P1;PMS_P2;Temp;Humidity;BMP_temperature;BMP_pressure;BME280_temperature;BME280_humidity;BME280_pressure;Samples;Min_cycle;Max_cycle;Signal;HPM_P1;HPM_P2
2022/11/02 07:16:59;;;;;;;6.32;3.55;;;11.30;99.90;;;;;;5019099;28;20538;-94
2022/11/02 07:36:42;;;;;;;8.95;3.55;;;12.10;99.20;;;;;;4997423;28;20636;-91
2022/11/02 07:42:45;;;;;;;6.25;3.72;;;12.20;98.90;;;;;;4996904;28;20176;-91
2022/11/02 07:55:36;;;;;;;6.82;3.13;;;12.30;98.90;;;;;;4978198;28;20181;-93
2022/11/02 08:01:56;;;;;;;6.70;3.08;;;12.60;98.10;;;;;;4977692;28;20172;-90
2022/11/02 08:07:45;;;;;;;5.10;2.95;;;13.00;96.40;;;;;;4976294;28;20695;-89
2022/11/02 08:10:52;;;;;;;6.50;3.00;;;13.30;96.50;;;;;;4977092;28;20206;-90
2022/11/02 08:13:58;;;;;;;7.25;3.05;;;13.70;95.40;;;;;;4973892;28;20209;-90
2022/11/02 08:23:54;;;;;;;17.00;8.52;;;14.70;91.40;;;;;;4941272;29;20713;-90
2022/11/02 08:26:24;;;;;;;7.65;3.05;;;14.70;90.30;;;;;;4958655;29;20308;-89
2022/11/02 08:29:46;;;;;;;6.90;3.22;;;14.70;91.20;;;;;;4956324;28;20585;-90
2022/11/02 08:37:28;;;;;;;6.05;3.17;;;14.30;91.30;;;;;;5062244;23;20235;-91
2022/11/02 08:40:06;;;;;;;11.23;4.70;;;14.40;92.30;;;;;;5033352;28;20809;-91
2022/11/02 08:45:37;;;;;;;5.47;2.65;;;15.50;86.30;;;;;;5010851;28;20205;-90
2022/11/02 08:48:23;;;;;;;9.73;2.58;;;16.10;76.40;;;;;;5029968;28;20309;-90
2022/11/02 08:50:53;;;;;;;5.28;2.20;;;16.90;68.50;;;;;;5026042;28;20213;-88
2022/11/02 08:53:29;;;;;;;6.47;2.65;;;17.60;60.40;;;;;;5031569;28;20566;-89
2022/11/02 08:55:59;;;;;;;4.35;2.30;;;18.30;54.90;;;;;;5027046;28;20237;-87
2022/11/02 08:58:36;;;;;;;4.85;2.25;;;19.10;42.00;;;;;;5021944;28;20285;-87
2022/11/02 09:01:04;;;;;;;4.45;2.10;;;19.10;41.00;;;;;;5023620;28;20238;-88
2022/11/02 09:03:31;;;;;;;8.85;2.63;;;18.50;42.50;;;;;;5021080;28;20215;-90
2022/11/02 09:05:59;;;;;;;4.70;2.35;;;18.00;47.10;;;;;;5019236;28;20253;-89
2022/11/02 09:08:29;;;;;;;7.85;2.28;;;17.70;43.60;;;;;;5027412;28;20325;-91
2022/11/02 09:11:05;;;;;;;6.32;2.13;;;17.30;45.10;;;;;;5034113;28;20234;-89
2022/11/02 09:13:32;;;;;;;6.85;2.45;;;17.10;51.00;;;;;;5033239;28;20199;-92
2022/11/02 09:16:40;;;;;;;6.13;2.63;;;17.40;52.30;;;;;;5031867;28;20694;-89
2022/11/02 09:19:09;;;;;;;8.63;2.08;;;17.70;44.70;;;;;;5024833;28;20618;-89
2022/11/02 09:21:35;;;;;;;5.60;2.03;;;18.20;42.20;;;;;;5020251;28;20343;-89
2022/11/02 09:24:03;;;;;;;3.70;1.95;;;18.60;38.90;;;;;;5008028;28;20207;-89
2022/11/02 09:26:40;;;;;;;5.97;2.22;;;18.90;39.80;;;;;;5009424;28;20709;-88
2022/11/02 09:29:07;;;;;;;3.25;1.98;;;19.70;31.80;;;;;;5002489;28;20203;-89
2022/11/02 09:31:34;;;;;;;5.03;2.13;;;20.00;32.10;;;;;;5002007;28;20215;-85
2022/11/02 09:34:01;;;;;;;6.05;2.33;;;20.40;28.60;;;;;;5004363;28;20226;-87
2022/11/02 09:36:30;;;;;;;7.93;2.63;;;20.40;27.00;;;;;;5005327;28;20218;-87
2022/11/02 09:38:57;;;;;;;5.72;2.35;;;20.00;27.80;;;;;;5010433;28;20774;-89
2022/11/02 09:41:33;;;;;;;8.20;2.13;;;19.50;28.40;;;;;;5002847;28;20323;-90
2022/11/02 09:44:05;;;;;;;11.43;2.88;;;18.80;31.10;;;;;;5001286;28;20623;-90
2022/11/02 09:46:35;;;;;;;8.60;2.28;;;18.20;30.60;;;;;;5004201;28;20242;-91
2022/11/02 09:49:06;;;;;;;6.82;2.30;;;17.70;32.60;;;;;;5014852;28;20298;-91
2022/11/02 09:51:38;;;;;;;4.10;1.80;;;17.40;33.70;;;;;;5006761;28;20286;-92
2022/11/02 09:54:29;;;;;;;6.78;2.20;;;17.20;36.50;;;;;;5006771;28;20206;-92
2022/11/02 10:00:41;;;;;;;6.95;2.13;;;16.40;42.10;;;;;;5006227;28;20294;-92
2022/11/02 10:03:34;;;;;;;10.05;2.08;;;16.10;43.70;;;;;;5007690;28;20282;-91
2022/11/02 10:06:29;;;;;;;5.03;1.90;;;16.00;45.70;;;;;;5011041;28;20195;-91
2022/11/02 10:09:20;;;;;;;4.55;1.98;;;16.00;45.10;;;;;;5012893;28;20206;-91
2022/11/02 10:11:59;;;;;;;5.13;1.75;;;16.10;43.80;;;;;;5010929;28;20217;-91
2022/11/02 10:15:10;;;;;;;7.97;2.20;;;16.00;45.70;;;;;;5004503;28;20299;-91
2022/11/02 10:17:40;;;;;;;5.90;2.10;;;16.00;47.30;;;;;;5002221;28;20647;-91
2022/11/02 10:20:24;;;;;;;6.65;2.17;;;16.10;47.10;;;;;;5010706;28;20287;-91
2022/11/02 10:26:52;;;;;;;5.43;1.88;;;16.60;45.70;;;;;;5008976;28;20651;-91
2022/11/02 10:29:59;;;;;;;7.47;1.77;;;16.80;41.80;;;;;;5012581;28;20571;-91
2022/11/02 10:32:31;;;;;;;7.15;2.03;;;16.80;40.90;;;;;;5012056;28;20195;-91
2022/11/02 10:35:01;;;;;;;4.82;1.88;;;16.70;38.50;;;;;;5011341;28;20302;-92
2022/11/02 10:37:41;;;;;;;6.03;2.05;;;16.50;39.40;;;;;;5009547;28;20246;-92
2022/11/02 10:40:20;;;;;;;9.60;2.00;;;16.20;40.80;;;;;;5010259;28;20195;-92
2022/11/02 10:42:58;;;;;;;11.18;1.92;;;16.10;41.10;;;;;;5001190;28;20234;-93
2022/11/02 11:00:34;;;;;;;4.20;1.60;;;16.00;35.80;;;;;;5012863;28;20199;-95
2022/11/02 11:14:00;;;;;;;4.00;1.80;;;16.20;33.50;;;;;;5233748;23;20255;-90
2022/11/02 11:16:42;;;;;;;7.97;1.70;;;16.30;33.80;;;;;;5006324;28;20298;-91
2022/11/02 11:19:52;;;;;;;6.43;1.90;;;16.30;34.20;;;;;;5004164;28;20250;-91
2022/11/02 11:22:35;;;;;;;4.72;1.70;;;16.40;34.50;;;;;;4999261;28;20229;-91
2022/11/02 11:25:21;;;;;;;4.57;1.73;;;16.30;35.00;;;;;;5005892;28;20271;-87
2022/11/02 11:27:50;;;;;;;5.43;2.13;;;16.30;37.00;;;;;;5011954;28;20551;-92
2022/11/02 11:30:25;;;;;;;6.05;1.88;;;16.40;36.60;;;;;;5009360;28;20211;-92
2022/11/02 11:32:53;;;;;;;8.75;1.80;;;16.40;36.30;;;;;;5002534;28;20215;-94
2022/11/02 11:35:24;;;;;;;6.15;1.90;;;16.40;35.80;;;;;;5005020;28;20367;-92
2022/11/02 11:38:14;;;;;;;4.35;1.65;;;16.60;34.90;;;;;;5013016;28;20238;-92
2022/11/02 11:41:00;;;;;;;5.53;2.13;;;16.60;35.30;;;;;;5003762;28;20286;-92
2022/11/02 11:43:41;;;;;;;4.43;1.75;;;16.70;36.40;;;;;;5008573;28;20200;-92
2022/11/02 11:46:13;;;;;;;4.65;2.05;;;16.50;36.70;;;;;;5004998;28;20282;-92
2022/11/02 11:48:45;;;;;;;5.22;1.77;;;16.50;37.10;;;;;;5008445;28;20238;-92
2022/11/02 11:51:30;;;;;;;10.02;2.22;;;16.60;36.90;;;;;;5014252;28;20234;-92
2022/11/02 11:54:24;;;;;;;9.85;2.08;;;16.60;37.40;;;;;;5008139;28;20239;-92
2022/11/02 11:56:53;;;;;;;8.00;2.00;;;16.50;39.20;;;;;;5008548;28;20809;-92
2022/11/02 11:59:44;;;;;;;5.78;1.65;;;16.50;38.40;;;;;;5011130;28;20203;-93
2022/11/02 12:02:23;;;;;;;6.80;1.90;;;16.50;37.10;;;;;;5005683;28;20648;-92
2022/11/02 12:04:50;;;;;;;6.03;1.70;;;16.60;37.20;;;;;;5013168;28;20205;-92
2022/11/02 12:07:58;;;;;;;3.45;1.80;;;16.50;37.90;;;;;;5003569;28;20333;-93
2022/11/02 12:10:49;;;;;;;6.95;1.70;;;16.40;38.70;;;;;;5010495;28;20200;-93
2022/11/02 12:13:48;;;;;;;4.55;1.73;;;16.30;38.70;;;;;;5009952;28;20246;-92
2022/11/02 12:16:26;;;;;;;7.43;1.85;;;16.30;41.20;;;;;;5004347;28;20215;-92
2022/11/02 12:19:19;;;;;;;5.50;1.42;;;16.20;40.10;;;;;;5010911;28;20219;-92
2022/11/02 12:22:01;;;;;;;6.15;1.63;;;16.20;39.20;;;;;;5005214;28;20230;-92
2022/11/02 12:24:46;;;;;;;4.28;1.70;;;16.30;38.70;;;;;;5012701;28;20202;-92
2022/11/02 12:27:31;;;;;;;4.72;1.40;;;16.20;40.00;;;;;;5014350;28;20255;-92
2022/11/02 12:30:14;;;;;;;5.80;1.60;;;16.10;40.20;;;;;;5012875;28;20210;-92
2022/11/02 12:32:56;;;;;;;5.60;1.85;;;16.00;40.80;;;;;;5017732;28;20206;-94
2022/11/02 12:35:57;;;;;;;5.53;1.52;;;15.90;43.80;;;;;;5029941;28;20242;-92
2022/11/02 12:38:57;;;;;;;4.78;1.52;;;15.70;43.10;;;;;;5010820;28;20640;-92
2022/11/02 12:41:45;;;;;;;7.10;1.42;;;15.50;44.90;;;;;;5008125;28;20287;-92
2022/11/02 12:47:53;;;;;;;5.75;1.60;;;15.60;46.40;;;;;;5010710;28;20737;-92
2022/11/02 12:53:51;;;;;;;8.95;2.03;;;15.60;47.40;;;;;;5010348;28;20259;-91
2022/11/02 12:56:28;;;;;;;9.77;2.10;;;15.50;47.30;;;;;;5001055;28;20665;-90
2022/11/02 13:02:19;;;;;;;5.75;1.92;;;15.50;47.80;;;;;;5010954;28;20198;-92
2022/11/02 13:04:58;;;;;;;4.80;1.77;;;15.50;48.60;;;;;;5004201;28;20264;-92
2022/11/02 13:08:10;;;;;;;6.28;1.83;;;15.40;51.70;;;;;;5006280;28;20227;-91
2022/11/02 13:10:44;;;;;;;4.20;1.65;;;15.50;50.40;;;;;;5008825;28;20540;-91
2022/11/02 13:13:52;;;;;;;7.45;1.85;;;15.50;49.60;;;;;;5006687;28;20302;-90
2022/11/02 13:16:43;;;;;;;10.07;1.90;;;15.50;51.00;;;;;;5013230;28;20642;-91
2022/11/02 13:19:33;;;;;;;7.00;1.75;;;15.50;50.00;;;;;;5006630;28;20282;-90
2022/11/02 13:22:21;;;;;;;7.18;2.03;;;15.50;51.80;;;;;;4996662;28;20246;-90
2022/11/02 13:24:57;;;;;;;7.78;1.73;;;15.50;50.30;;;;;;5013907;28;20214;-90
2022/11/02 13:27:48;;;;;;;5.93;1.60;;;15.50;51.40;;;;;;5009211;28;20299;-91
2022/11/02 13:30:18;;;;;;;7.43;1.75;;;15.50;51.90;;;;;;5005739;28;20279;-91
2022/11/02 13:32:51;;;;;;;4.22;1.67;;;15.50;49.60;;;;;;5010410;28;20612;-91
2022/11/02 13:35:39;;;;;;;2.30;1.45;;;15.40;47.60;;;;;;5001572;28;20291;-91
2022/11/02 13:38:52;;;;;;;3.80;1.20;;;15.40;47.70;;;;;;5011189;28;20207;-90
2022/11/02 13:42:10;;;;;;;4.90;1.73;;;15.40;48.30;;;;;;5010021;28;20278;-91
2022/11/02 13:45:16;;;;;;;5.22;1.73;;;15.40;45.60;;;;;;5011546;28;20286;-91
2022/11/02 13:48:25;;;;;;;6.43;1.50;;;15.40;43.10;;;;;;5012334;28;20218;-90
2022/11/02 13:54:42;;;;;;;6.28;1.52;;;15.20;46.30;;;;;;5008211;28;20245;-91
2022/11/02 13:57:33;;;;;;;3.15;1.38;;;15.20;45.90;;;;;;5007732;28;20227;-91
2022/11/02 14:03:48;;;;;;;8.32;1.30;;;15.20;46.30;;;;;;5006783;28;20274;-90
2022/11/02 14:07:11;;;;;;;8.10;1.40;;;15.20;48.70;;;;;;5012225;28;20205;-91
2022/11/02 14:09:41;;;;;;;5.15;1.45;;;15.10;51.50;;;;;;5010327;28;20305;-90
2022/11/02 14:12:31;;;;;;;3.80;1.55;;;15.10;49.60;;;;;;5011427;28;20206;-91
2022/11/02 14:15:52;;;;;;;3.85;1.50;;;15.20;49.30;;;;;;5008178;28;20203;-91
2022/11/02 14:18:46;;;;;;;2.40;1.50;;;15.20;48.10;;;;;;5009838;28;20204;-90
2022/11/02 14:21:52;;;;;;;4.20;1.50;;;15.10;48.50;;;;;;5012078;28;20219;-90
2022/11/02 14:27:41;;;;;;;3.88;1.25;;;14.90;51.30;;;;;;5010160;28;20225;-91
2022/11/02 14:30:44;;;;;;;4.32;1.33;;;14.80;51.20;;;;;;5007790;28;20631;-91
2022/11/02 14:33:55;;;;;;;5.20;1.50;;;14.80;51.20;;;;;;4919498;29;20570;-90
2022/11/02 14:36:52;;;;;;;7.57;1.58;;;14.70;51.20;;;;;;4928284;29;20220;-91
2022/11/02 14:39:27;;;;;;;4.10;1.65;;;14.70;51.10;;;;;;4930642;29;20765;-90
2022/11/02 14:42:24;;;;;;;4.10;1.35;;;14.70;51.10;;;;;;4923303;29;21744;-91
2022/11/02 14:45:13;;;;;;;6.25;1.60;;;14.70;51.10;;;;;;4929820;29;20636;-91
2022/11/02 14:47:41;;;;;;;6.43;1.55;;;14.60;52.70;;;;;;4926720;29;20237;-91
2022/11/02 14:50:17;;;;;;;4.53;1.70;;;14.60;53.50;;;;;;4923201;29;20602;-90
2022/11/02 14:52:57;;;;;;;5.95;1.60;;;14.60;52.20;;;;;;4927702;29;20296;-91
2022/11/02 14:55:27;;;;;;;3.92;1.52;;;14.50;50.90;;;;;;4929754;29;20305;-91
2022/11/02 14:57:58;;;;;;;4.68;1.73;;;14.60;51.00;;;;;;4927275;29;20252;-91
2022/11/02 15:00:33;;;;;;;4.88;1.77;;;14.60;51.00;;;;;;4923375;29;21173;-91
2022/11/02 15:03:01;;;;;;;5.05;1.50;;;14.50;53.80;;;;;;4935167;29;20245;-91
2022/11/02 15:05:33;;;;;;;4.20;1.60;;;14.50;52.60;;;;;;4935002;29;20600;-91
2022/11/02 15:08:05;;;;;;;3.88;1.65;;;14.30;55.80;;;;;;4930558;29;21490;-91
2022/11/02 15:10:44;;;;;;;3.50;1.40;;;14.10;62.90;;;;;;5002180;28;20203;-91
2022/11/02 15:13:45;;;;;;;4.28;1.45;;;13.90;62.20;;;;;;5009537;28;20203;-90
2022/11/02 15:16:39;;;;;;;4.13;1.65;;;13.80;65.20;;;;;;5007516;28;20261;-91
2022/11/02 15:19:36;;;;;;;4.57;1.77;;;13.80;66.90;;;;;;4931303;28;20209;-91
2022/11/02 15:25:50;;;;;;;4.47;1.50;;;13.70;71.00;;;;;;4964446;28;20700;-90
2022/11/02 15:28:43;;;;;;;2.83;1.40;;;13.60;72.80;;;;;;4952469;28;20324;-91
2022/11/02 15:31:17;;;;;;;3.45;1.27;;;13.50;75.50;;;;;;4952784;28;20266;-91
2022/11/02 15:34:14;;;;;;;7.63;1.83;;;13.40;76.20;;;;;;4952967;28;20213;-91
2022/11/02 15:36:54;;;;;;;4.70;1.60;;;13.30;78.90;;;;;;4956314;28;20217;-90
2022/11/02 15:40:04;;;;;;;8.85;2.17;;;13.20;79.40;;;;;;4954226;28;20288;-91
2022/11/02 15:42:43;;;;;;;5.20;1.90;;;13.10;79.60;;;;;;4949630;28;20737;-90
2022/11/02 15:45:36;;;;;;;5.45;1.67;;;12.80;81.40;;;;;;4958101;28;20201;-89
2022/11/02 16:17:30;;;;;;;6.32;2.88;;;12.10;90.30;;;;;;5020832;28;20207;-90
2022/11/02 16:20:10;;;;;;;7.50;2.80;;;12.00;90.70;;;;;;5030033;28;20273;-90
2022/11/02 16:22:46;;;;;;;6.40;2.92;;;11.80;90.90;;;;;;5007757;28;20199;-90
2022/11/02 16:25:33;;;;;;;9.52;2.53;;;11.70;91.30;;;;;;5003414;28;20287;-91
2022/11/02 16:28:16;;;;;;;7.60;3.40;;;11.60;91.60;;;;;;5008525;28;20647;-93
2022/11/02 16:30:58;;;;;;;5.72;2.63;;;11.60;91.60;;;;;;5005639;28;20302;-90
2022/11/02 16:33:26;;;;;;;9.80;3.25;;;11.60;91.70;;;;;;4999623;28;20211;-88
2022/11/02 16:36:00;;;;;;;6.70;3.40;;;11.50;91.90;;;;;;5003530;28;20295;-89
2022/11/02 16:38:28;;;;;;;7.68;3.55;;;11.50;91.90;;;;;;5000863;28;20204;-89
2022/11/02 16:40:55;;;;;;;11.88;4.25;;;11.40;92.10;;;;;;5011530;28;20203;-89
2022/11/02 16:43:26;;;;;;;8.38;3.65;;;11.30;92.50;;;;;;5009091;28;20468;-89
2022/11/02 16:46:02;;;;;;;9.90;4.00;;;11.10;93.00;;;;;;5003586;28;20199;-88
2022/11/02 16:48:31;;;;;;;9.98;3.80;;;11.00;93.90;;;;;;5006769;28;20229;-89
2022/11/02 16:51:03;;;;;;;10.88;4.10;;;11.00;93.70;;;;;;5008177;28;20200;-89
2022/11/02 16:53:33;;;;;;;15.30;5.07;;;11.00;93.40;;;;;;5004116;28;20319;-89
2022/11/02 16:56:15;;;;;;;9.35;4.70;;;11.10;93.30;;;;;;4999257;28;20294;-89
2022/11/02 16:58:47;;;;;;;17.63;5.82;;;11.10;93.30;;;;;;4999519;28;20209;-89
2022/11/02 17:01:21;;;;;;;7.68;5.13;;;11.00;93.60;;;;;;4999451;28;20206;-89
2022/11/02 17:03:48;;;;;;;11.45;5.68;;;10.90;93.90;;;;;;5005843;28;20225;-89
2022/11/02 17:06:17;;;;;;;8.43;4.93;;;10.80;94.20;;;;;;5002055;28;20219;-89
2022/11/02 17:08:44;;;;;;;13.95;5.60;;;10.80;94.40;;;;;;5000817;28;20225;-89
2022/11/02 17:11:15;;;;;;;17.08;6.45;;;10.70;94.60;;;;;;5001698;28;20323;-89
2022/11/02 17:13:48;;;;;;;13.52;5.90;;;10.80;94.70;;;;;;5005092;28;20210;-89
2022/11/02 17:16:15;;;;;;;11.98;5.32;;;10.80;94.70;;;;;;5002127;28;20219;-89
2022/11/02 17:18:43;;;;;;;9.90;5.63;;;10.80;94.80;;;;;;5004408;28;20717;-89
2022/11/02 17:21:24;;;;;;;10.13;5.13;;;10.80;95.00;;;;;;5002682;28;20223;-88
2022/11/02 17:23:52;;;;;;;11.98;5.53;;;10.70;95.00;;;;;;5001764;28;20700;-89
2022/11/02 17:26:32;;;;;;;14.93;5.68;;;10.70;95.20;;;;;;5002448;28;20204;-89
2022/11/02 17:29:00;;;;;;;12.70;5.68;;;10.60;95.30;;;;;;4993645;28;20308;-89
2022/11/02 17:31:31;;;;;;;10.52;5.78;;;10.60;95.40;;;;;;4999771;28;20724;-88
2022/11/02 17:34:02;;;;;;;11.30;5.53;;;10.60;95.60;;;;;;5004716;28;20570;-88
2022/11/02 17:36:41;;;;;;;16.35;6.10;;;10.60;95.20;;;;;;5001937;28;20683;-88
2022/11/02 17:39:10;;;;;;;11.68;5.32;;;10.60;95.00;;;;;;5003194;28;20207;-89
2022/11/02 17:44:23;;;;;;;10.85;4.55;;;10.50;95.20;;;;;;4997660;28;20206;-88
2022/11/02 17:47:17;;;;;;;9.02;6.07;;;10.40;95.30;;;;;;5005846;28;20220;-89
2022/11/02 17:49:48;;;;;;;11.77;5.60;;;10.30;95.60;;;;;;5002512;28;20322;-89
2022/11/02 17:52:17;;;;;;;12.00;5.38;;;10.20;95.80;;;;;;5003296;28;20302;-89
2022/11/02 17:54:54;;;;;;;10.50;5.10;;;10.00;96.20;;;;;;5005297;28;20279;-89
2022/11/02 17:57:23;;;;;;;10.13;5.47;;;9.90;97.00;;;;;;5005489;28;20240;-89
2022/11/02 17:59:51;;;;;;;11.88;5.97;;;9.90;97.10;;;;;;5007396;28;20239;-89
2022/11/02 18:02:17;;;;;;;10.73;6.30;;;10.00;96.50;;;;;;4984902;28;20290;-89
2022/11/02 18:04:44;;;;;;;12.13;6.50;;;10.00;96.10;;;;;;5007805;28;20290;-89
2022/11/02 18:07:13;;;;;;;12.98;6.70;;;10.00;96.10;;;;;;5004582;28;20726;-89
2022/11/02 18:09:40;;;;;;;10.80;6.05;;;9.90;96.70;;;;;;5006836;28;20326;-90
2022/11/02 18:12:09;;;;;;;10.75;5.78;;;9.80;97.10;;;;;;5004280;28;20215;-89
2022/11/02 18:14:38;;;;;;;10.25;5.60;;;9.80;97.40;;;;;;5004786;28;20298;-89
2022/11/02 18:17:05;;;;;;;12.07;5.50;;;9.80;97.20;;;;;;5009988;28;20235;-90
2022/11/02 18:19:32;;;;;;;11.80;5.47;;;9.90;97.20;;;;;;5007628;28;20230;-89
2022/11/02 18:21:59;;;;;;;9.65;5.57;;;9.90;96.80;;;;;;5003580;28;20231;-90
2022/11/02 18:24:28;;;;;;;17.05;6.35;;;9.80;97.00;;;;;;5004948;28;20213;-88
2022/11/02 18:26:55;;;;;;;9.73;6.70;;;9.60;97.50;;;;;;4994862;28;20625;-89
2022/11/02 18:29:22;;;;;;;16.30;6.78;;;9.50;98.00;;;;;;5002305;28;20223;-88
2022/11/02 18:31:49;;;;;;;12.55;6.28;;;9.40;98.50;;;;;;5007653;28;20229;-88
2022/11/02 18:34:17;;;;;;;15.23;7.03;;;9.50;98.50;;;;;;5005480;28;20207;-88
2022/11/02 18:36:44;;;;;;;15.95;7.10;;;9.50;98.40;;;;;;5006811;28;20235;-88
2022/11/02 18:39:11;;;;;;;14.77;7.30;;;9.50;98.50;;;;;;5007369;28;20769;-87
2022/11/02 18:41:43;;;;;;;20.85;8.27;;;9.40;98.60;;;;;;5008200;28;20242;-87
2022/11/02 18:44:10;;;;;;;15.50;7.45;;;9.30;98.80;;;;;;5005669;28;20218;-88
2022/11/02 18:46:37;;;;;;;15.57;7.20;;;9.30;99.20;;;;;;5003878;28;20212;-87
2022/11/02 18:49:04;;;;;;;20.15;8.27;;;9.30;99.20;;;;;;5004981;28;20782;-88
2022/11/02 18:51:31;;;;;;;19.40;9.75;;;9.40;99.00;;;;;;5004975;28;20290;-88
2022/11/02 18:53:59;;;;;;;20.45;10.00;;;9.40;98.60;;;;;;5003850;28;20267;-88
2022/11/02 18:56:30;;;;;;;14.95;9.02;;;9.50;98.50;;;;;;5005842;28;20273;-87
2022/11/02 18:58:58;;;;;;;15.18;9.20;;;9.40;98.50;;;;;;5005144;28;20275;-88
2022/11/02 19:01:26;;;;;;;23.15;9.30;;;9.30;98.60;;;;;;5006851;28;20211;-89
2022/11/02 19:03:54;;;;;;;17.77;9.45;;;9.10;99.10;;;;;;5004356;28;20346;-89
2022/11/02 19:09:19;;;;;;;14.10;7.53;;;9.10;99.50;;;;;;4920172;29;20215;-89
2022/11/02 19:11:48;;;;;;;12.45;7.10;;;9.00;99.70;;;;;;4925516;29;20206;-89
2022/11/02 19:14:17;;;;;;;16.20;7.15;;;8.90;99.90;;;;;;4918431;29;20270;-88
2022/11/02 19:16:44;;;;;;;16.45;7.43;;;8.90;99.90;;;;;;4926739;29;20209;-88
2022/11/02 19:19:11;;;;;;;11.80;6.00;;;8.80;99.90;;;;;;4918781;29;20269;-88
2022/11/02 19:21:38;;;;;;;12.98;6.43;;;8.90;99.90;;;;;;4915791;29;20690;-87
2022/11/02 19:24:07;;;;;;;10.35;6.28;;;8.90;99.90;;;;;;4923560;29;20281;-87
2022/11/02 19:26:34;;;;;;;13.52;7.68;;;8.90;99.90;;;;;;4920306;29;20593;-87
2022/11/02 19:29:05;;;;;;;15.10;7.03;;;8.80;99.90;;;;;;4923072;29;20310;-88
2022/11/02 19:31:34;;;;;;;12.60;6.82;;;8.70;99.90;;;;;;4926114;29;20208;-88
2022/11/02 19:34:01;;;;;;;12.77;7.10;;;8.70;99.90;;;;;;4924734;29;20237;-88
2022/11/02 19:36:28;;;;;;;11.15;5.60;;;8.70;99.90;;;;;;4925369;29;20218;-88
2022/11/02 19:38:56;;;;;;;12.65;5.50;;;8.70;99.90;;;;;;4924144;29;20253;-89
2022/11/02 19:41:23;;;;;;;11.35;5.28;;;8.70;99.90;;;;;;4914146;29;20638;-86
2022/11/02 19:43:50;;;;;;;11.35;5.22;;;8.80;99.90;;;;;;4977628;28;20298;-90
2022/11/02 19:46:19;;;;;;;8.85;4.97;;;8.90;99.90;;;;;;5004080;28;20295;-90
2022/11/02 19:48:56;;;;;;;13.00;4.78;;;8.90;99.90;;;;;;5002646;28;20302;-91
2022/11/02 19:51:30;;;;;;;12.05;4.90;;;8.90;99.90;;;;;;5003133;28;20285;-89
2022/11/02 19:54:18;;;;;;;9.65;4.90;;;8.80;99.90;;;;;;5002675;28;20319;-89
2022/11/02 19:56:59;;;;;;;12.70;4.75;;;8.70;99.90;;;;;;5005297;28;20253;-90
2022/11/02 19:59:27;;;;;;;9.35;4.85;;;8.70;99.90;;;;;;5001973;28;20258;-89
2022/11/02 20:01:54;;;;;;;12.60;5.70;;;8.60;99.90;;;;;;5002810;28;20204;-89
2022/11/02 20:04:22;;;;;;;11.88;5.72;;;8.60;99.90;;;;;;5002612;28;20249;-89
2022/11/02 20:06:49;;;;;;;13.32;6.47;;;8.50;99.90;;;;;;5001747;28;20254;-88
2022/11/02 20:09:18;;;;;;;9.77;5.78;;;8.50;99.90;;;;;;5007707;28;20321;-88
2022/11/02 20:11:45;;;;;;;8.52;5.55;;;8.50;99.90;;;;;;5003861;28;20675;-88
2022/11/02 20:14:15;;;;;;;9.35;5.60;;;8.50;99.90;;;;;;5005971;28;20670;-88
2022/11/02 20:16:42;;;;;;;9.82;5.80;;;8.50;99.90;;;;;;5008702;28;20218;-87
2022/11/02 20:19:09;;;;;;;12.93;6.03;;;8.50;99.90;;;;;;5008750;28;20722;-88
2022/11/02 20:21:38;;;;;;;9.60;5.72;;;8.40;99.90;;;;;;5008222;28;20297;-89
2022/11/02 20:24:06;;;;;;;10.95;6.13;;;8.30;99.90;;;;;;5002499;28;20214;-88
2022/11/02 20:26:35;;;;;;;9.23;6.30;;;8.30;99.90;;;;;;5000755;28;20574;-89
2022/11/02 20:29:04;;;;;;;14.52;5.90;;;8.30;99.90;;;;;;5003916;28;20212;-89
2022/11/02 20:31:38;;;;;;;11.80;6.97;;;8.20;99.90;;;;;;5006302;28;20302;-88
2022/11/02 20:34:07;;;;;;;9.75;6.05;;;8.30;99.90;;;;;;5004345;28;20243;-89
2022/11/02 20:36:38;;;;;;;10.88;6.20;;;8.30;99.90;;;;;;5009559;28;20215;-88
2022/11/02 20:39:06;;;;;;;102.30;70.30;;;8.30;99.90;;;;;;5001290;28;20207;-88
2022/11/02 20:41:33;;;;;;;56.67;38.15;;;8.70;99.90;;;;;;5004257;28;20315;-88
2022/11/02 20:44:00;;;;;;;35.17;24.30;;;9.30;99.90;;;;;;5003391;28;20243;-89
2022/11/02 20:46:28;;;;;;;48.00;33.17;;;9.50;99.90;;;;;;4999738;28;20290;-89
2022/11/02 20:48:56;;;;;;;50.20;35.10;;;9.70;99.90;;;;;;5004173;28;20302;-88
2022/11/02 20:51:24;;;;;;;25.88;15.90;;;10.60;98.50;;;;;;4998832;28;20321;-89
2022/11/02 20:53:52;;;;;;;20.35;13.98;;;10.80;94.90;;;;;;5002256;28;20662;-88
2022/11/02 20:56:19;;;;;;;17.27;9.73;;;10.80;95.00;;;;;;4999198;28;20229;-89
2022/11/02 20:58:47;;;;;;;23.75;17.17;;;11.00;93.60;;;;;;4999622;28;20294;-89
2022/11/02 21:01:16;;;;;;;41.45;29.90;;;10.70;94.10;;;;;;4999289;28;20393;-88
2022/11/02 21:03:43;;;;;;;48.08;33.60;;;11.20;93.50;;;;;;5000449;28;20208;-88
2022/11/02 21:06:11;;;;;;;42.50;29.17;;;11.00;92.40;;;;;;5001220;28;20203;-89
2022/11/02 21:08:39;;;;;;;22.52;15.88;;;11.00;92.30;;;;;;5003424;28;20207;-87
2022/11/02 21:13:50;;;;;;;30.45;20.40;;;10.70;92.70;;;;;;5006275;28;20231;-87
2022/11/02 21:13:54;;;;;;;18.13;13.07;;;10.50;93.80;;;;;;5006556;28;20238;-90
2022/11/02 21:16:21;;;;;;;17.23;10.43;;;10.30;93.90;;;;;;5003619;28;20538;-88
2022/11/02 21:18:48;;;;;;;14.25;9.55;;;10.20;94.30;;;;;;5005176;28;20203;-90
2022/11/02 21:21:18;;;;;;;12.98;6.70;;;10.60;94.80;;;;;;5003423;28;20310;-88
2022/11/02 21:23:46;;;;;;;12.32;6.75;;;10.50;93.00;;;;;;5003835;28;20199;-88
2022/11/02 21:26:15;;;;;;;10.55;6.15;;;10.30;93.80;;;;;;5008398;28;20213;-89
2022/11/02 21:28:43;;;;;;;11.15;5.75;;;10.10;94.40;;;;;;5003238;28;20218;-88
2022/11/02 21:31:14;;;;;;;10.75;6.18;;;10.00;94.80;;;;;;5005129;28;20227;-88
2022/11/02 21:33:41;;;;;;;7.68;4.78;;;9.90;95.80;;;;;;5003375;28;20235;-88
2022/11/02 21:36:09;;;;;;;8.63;5.63;;;9.70;96.10;;;;;;5000223;28;20289;-87
2022/11/02 21:38:37;;;;;;;8.23;4.75;;;9.60;96.80;;;;;;5001801;28;20269;-89
2022/11/02 21:41:06;;;;;;;9.38;5.20;;;10.30;94.10;;;;;;5003191;28;20292;-88
2022/11/02 21:43:36;;;;;;;9.60;5.15;;;10.60;93.60;;;;;;5006101;28;20258;-88
2022/11/02 21:46:05;;;;;;;8.02;5.03;;;11.20;91.60;;;;;;5004933;28;20208;-89
2022/11/02 21:48:33;;;;;;;8.95;4.95;;;11.40;90.60;;;;;;5009898;28;20211;-88
2022/11/02 21:51:02;;;;;;;10.23;5.20;;;11.00;90.50;;;;;;4998303;28;20242;-89
2022/11/02 21:53:29;;;;;;;8.65;5.13;;;10.70;91.60;;;;;;5001346;28;20306;-89
2022/11/02 21:56:01;;;;;;;9.38;4.93;;;10.30;92.90;;;;;;5005870;28;20713;-88
2022/11/02 21:58:28;;;;;;;9.52;5.50;;;9.90;93.40;;;;;;5003569;28;20711;-87
2022/11/02 22:03:47;;;;;;;8.10;5.15;;;8.90;95.90;;;;;;5004019;28;20260;-88
2022/11/02 22:06:14;;;;;;;9.63;5.20;;;8.70;97.40;;;;;;5008759;28;20663;-87
2022/11/02 22:08:41;;;;;;;6.57;4.80;;;8.60;97.70;;;;;;5006483;28;20230;-86
2022/11/02 22:11:10;;;;;;;10.30;4.80;;;8.40;98.10;;;;;;5003326;28;20224;-89
2022/11/02 22:13:37;;;;;;;9.77;5.22;;;8.20;98.70;;;;;;5001957;28;20219;-88
2022/11/02 22:16:14;;;;;;;11.70;5.60;;;8.00;99.40;;;;;;5004257;28;20199;-89
2022/11/02 22:18:42;;;;;;;10.10;5.28;;;7.80;99.90;;;;;;5007874;28;20202;-88
2022/11/02 22:21:12;;;;;;;9.05;4.85;;;7.70;99.90;;;;;;5007741;28;20251;-88
2022/11/02 22:23:41;;;;;;;9.13;4.85;;;7.70;99.90;;;;;;5005592;28;20294;-88
2022/11/02 22:26:10;;;;;;;6.55;4.82;;;7.60;99.90;;;;;;5005405;28;20687;-88
2022/11/02 22:28:40;;;;;;;10.73;6.07;;;7.50;99.90;;;;;;5005459;28;20211;-89
2022/11/02 22:31:09;;;;;;;12.05;5.78;;;7.50;99.90;;;;;;5007122;28;20281;-88
2022/11/02 22:33:38;;;;;;;10.90;6.10;;;7.40;99.90;;;;;;5006806;28;20235;-89
2022/11/02 22:36:05;;;;;;;10.90;6.72;;;7.40;99.90;;;;;;4993636;28;20282;-89
2022/11/02 22:38:47;;;;;;;14.30;7.68;;;7.40;99.90;;;;;;5002328;28;20682;-88
2022/11/02 22:41:14;;;;;;;12.88;8.20;;;7.30;99.90;;;;;;4996044;28;20219;-87
2022/11/02 22:43:41;;;;;;;17.52;9.32;;;7.20;99.90;;;;;;5003708;28;20775;-89
2022/11/02 22:46:09;;;;;;;19.52;9.52;;;7.20;99.90;;;;;;4998323;28;20294;-88
2022/11/02 22:48:37;;;;;;;20.02;10.25;;;7.20;99.90;;;;;;5002212;28;20306;-88
2022/11/02 22:51:06;;;;;;;17.20;8.55;;;7.20;99.90;;;;;;5004483;28;20218;-88
2022/11/02 22:53:33;;;;;;;17.88;8.90;;;7.20;99.90;;;;;;5000817;28;20211;-89
2022/11/02 22:56:02;;;;;;;21.95;10.70;;;7.20;99.90;;;;;;5001993;28;20294;-88
2022/11/02 22:58:31;;;;;;;23.05;9.73;;;7.30;99.90;;;;;;5006013;28;20218;-88
2022/11/02 23:00:58;;;;;;;14.75;9.57;;;7.30;99.90;;;;;;5000688;28;20207;-88
2022/11/02 23:03:25;;;;;;;17.98;9.77;;;7.30;99.90;;;;;;4997590;28;20662;-88
2022/11/02 23:05:54;;;;;;;21.73;11.10;;;7.20;99.90;;;;;;5000750;28;20294;-88
2022/11/02 23:08:21;;;;;;;17.90;10.18;;;7.10;99.90;;;;;;5005397;28;20212;-88
2022/11/02 23:13:37;;;;;;;18.02;9.80;;;7.00;99.90;;;;;;5006249;28;20221;-88
2022/11/02 23:16:20;;;;;;;16.55;8.70;;;7.10;99.90;;;;;;5002531;28;20307;-88
2022/11/02 23:21:39;;;;;;;18.13;8.23;;;7.00;99.90;;;;;;5008736;28;20234;-88